sensor_id;sensor_type;location;lat;lon;timestamp;pressure;altitude;pressure_sealevel;temperature;humidity
26807;BME280;14380;49.910;6.792;2023-01-29T00:01:08;100094.94;;;-0.21;91.42
26807;BME280;14380;49.910;6.792;2023-01-29T00:03:35;100095.94;;;-0.09;91.45
26807;BME280;14380;49.910;6.792;2023-01-29T00:06:04;100096.03;;;0.03;92.76
26807;BME280;14380;49.910;6.792;2023-01-29T00:08:32;100109.00;;;0.00;92.77
26807;BME280;14380;49.910;6.792;2023-01-29T00:11:00;100109.03;;;0.05;96.37
26807;BME280;14380;49.910;6.792;2023-01-29T00:13:27;100116.06;;;0.17;92.69
26807;BME280;14380;49.910;6.792;2023-01-29T00:15:54;100113.44;;;0.12;92.44
26807;BME280;14380;49.910;6.792;2023-01-29T00:18:21;100113.44;;;0.12;92.91
26807;BME280;14380;49.910;6.792;2023-01-29T00:20:47;100124.50;;;-0.05;92.51
26807;BME280;14380;49.910;6.792;2023-01-29T00:23:14;100123.78;;;0.10;94.59
26807;BME280;14380;49.910;6.792;2023-01-29T00:25:41;100125.63;;;0.19;93.32
26807;BME280;14380;49.910;6.792;2023-01-29T00:28:09;100133.31;;;0.10;94.90
26807;BME280;14380;49.910;6.792;2023-01-29T00:30:35;100135.81;;;0.01;92.92
26807;BME280;14380;49.910;6.792;2023-01-29T00:33:02;100125.28;;;-0.15;93.36
26807;BME280;14380;49.910;6.792;2023-01-29T00:35:29;100129.88;;;0.11;94.18
26807;BME280;14380;49.910;6.792;2023-01-29T00:37:56;100129.81;;;0.06;93.38
26807;BME280;14380;49.910;6.792;2023-01-29T00:40:23;100131.38;;;-0.10;91.36
26807;BME280;14380;49.910;6.792;2023-01-29T00:42:50;100136.78;;;0.10;91.19
26807;BME280;14380;49.910;6.792;2023-01-29T00:45:35;100129.75;;;-0.03;91.47
26807;BME280;14380;49.910;6.792;2023-01-29T00:48:03;100135.03;;;0.08;93.58
26807;BME280;14380;49.910;6.792;2023-01-29T00:50:30;100127.09;;;-0.06;91.98
26807;BME280;14380;49.910;6.792;2023-01-29T00:52:57;100121.81;;;-0.14;91.77
26807;BME280;14380;49.910;6.792;2023-01-29T00:55:23;100116.69;;;-0.09;93.22
26807;BME280;14380;49.910;6.792;2023-01-29T00:57:50;100122.06;;;0.12;93.43
26807;BME280;14380;49.910;6.792;2023-01-29T01:00:17;100110.63;;;-0.10;90.94
26807;BME280;14380;49.910;6.792;2023-01-29T01:02:45;100111.56;;;-0.03;90.25
26807;BME280;14380;49.910;6.792;2023-01-29T01:05:29;100108.16;;;0.03;89.97
26807;BME280;14380;49.910;6.792;2023-01-29T01:07:57;100103.09;;;0.18;92.57
26807;BME280;14380;49.910;6.792;2023-01-29T01:10:25;100098.69;;;0.09;92.72
26807;BME280;14380;49.910;6.792;2023-01-29T01:12:53;100097.91;;;0.18;90.16
26807;BME280;14380;49.910;6.792;2023-01-29T01:15:21;100092.59;;;0.06;92.12
26807;BME280;14380;49.910;6.792;2023-01-29T01:17:52;100088.25;;;0.06;91.31
26807;BME280;14380;49.910;6.792;2023-01-29T01:20:19;100085.66;;;0.06;94.08
26807;BME280;14380;49.910;6.792;2023-01-29T01:22:45;100088.31;;;0.11;93.12
26807;BME280;14380;49.910;6.792;2023-01-29T01:25:12;100094.84;;;-0.32;92.21
26807;BME280;14380;49.910;6.792;2023-01-29T01:27:39;100083.88;;;-0.03;93.94
26807;BME280;14380;49.910;6.792;2023-01-29T01:30:09;100080.34;;;-0.09;93.70
26807;BME280;14380;49.910;6.792;2023-01-29T01:32:36;100074.56;;;0.23;93.74
26807;BME280;14380;49.910;6.792;2023-01-29T01:35:05;100068.31;;;0.02;95.06
26807;BME280;14380;49.910;6.792;2023-01-29T01:37:32;100071.94;;;0.20;95.16
26807;BME280;14380;49.910;6.792;2023-01-29T01:40:02;100067.47;;;0.02;93.31
26807;BME280;14380;49.910;6.792;2023-01-29T01:42:30;100058.81;;;0.03;95.15
26807;BME280;14380;49.910;6.792;2023-01-29T01:44:59;100061.44;;;0.07;94.97
26807;BME280;14380;49.910;6.792;2023-01-29T01:47:36;100053.63;;;0.04;95.14
26807;BME280;14380;49.910;6.792;2023-01-29T01:50:08;100050.03;;;-0.12;94.57
26807;BME280;14380;49.910;6.792;2023-01-29T01:52:42;100045.94;;;0.15;94.52
26807;BME280;14380;49.910;6.792;2023-01-29T01:55:12;100043.31;;;0.13;94.67
26807;BME280;14380;49.910;6.792;2023-01-29T01:57:42;100042.38;;;0.04;91.97
26807;BME280;14380;49.910;6.792;2023-01-29T02:00:12;100037.16;;;0.02;91.41
26807;BME280;14380;49.910;6.792;2023-01-29T02:02:42;100035.41;;;-0.02;92.74
26807;BME280;14380;49.910;6.792;2023-01-29T02:05:28;100028.50;;;-0.02;94.94
26807;BME280;14380;49.910;6.792;2023-01-29T02:08:13;100031.94;;;-0.03;95.17
26807;BME280;14380;49.910;6.792;2023-01-29T02:10:58;100031.97;;;-0.01;95.29
26807;BME280;14380;49.910;6.792;2023-01-29T02:13:25;100036.94;;;-0.21;93.66
26807;BME280;14380;49.910;6.792;2023-01-29T02:15:52;100041.25;;;-0.25;93.31
26807;BME280;14380;49.910;6.792;2023-01-29T02:18:20;100053.34;;;-0.27;94.42
26807;BME280;14380;49.910;6.792;2023-01-29T02:21:03;100056.66;;;-0.40;93.77
26807;BME280;14380;49.910;6.792;2023-01-29T02:24:04;100062.78;;;-0.37;91.74
26807;BME280;14380;49.910;6.792;2023-01-29T02:26:42;100068.72;;;-0.49;92.43
26807;BME280;14380;49.910;6.792;2023-01-29T02:29:17;100082.81;;;-0.22;94.70
26807;BME280;14380;49.910;6.792;2023-01-29T02:31:58;100084.53;;;-0.25;94.92
26807;BME280;14380;49.910;6.792;2023-01-29T02:34:37;100076.81;;;-0.16;93.58
26807;BME280;14380;49.910;6.792;2023-01-29T02:37:25;100076.03;;;-0.07;93.96
26807;BME280;14380;49.910;6.792;2023-01-29T02:40:06;100071.53;;;-0.24;92.66
26807;BME280;14380;49.910;6.792;2023-01-29T02:42:36;100079.28;;;-0.27;94.74
26807;BME280;14380;49.910;6.792;2023-01-29T02:45:10;100075.09;;;-0.14;93.80
26807;BME280;14380;49.910;6.792;2023-01-29T02:47:41;100071.66;;;-0.14;94.20
26807;BME280;14380;49.910;6.792;2023-01-29T02:50:15;100076.72;;;-0.24;94.15
26807;BME280;14380;49.910;6.792;2023-01-29T02:52:48;100066.31;;;-0.28;92.39
26807;BME280;14380;49.910;6.792;2023-01-29T02:55:22;100064.69;;;-0.19;93.61
26807;BME280;14380;49.910;6.792;2023-01-29T02:57:54;100067.31;;;-0.16;93.80
26807;BME280;14380;49.910;6.792;2023-01-29T03:00:25;100057.75;;;-0.18;94.42
26807;BME280;14380;49.910;6.792;2023-01-29T03:02:57;100062.81;;;-0.32;93.83
26807;BME280;14380;49.910;6.792;2023-01-29T03:05:30;100052.63;;;-0.13;96.00
26807;BME280;14380;49.910;6.792;2023-01-29T03:08:01;100047.38;;;-0.20;92.70
26807;BME280;14380;49.910;6.792;2023-01-29T03:10:34;100040.44;;;-0.21;94.34
26807;BME280;14380;49.910;6.792;2023-01-29T03:13:08;100042.13;;;-0.24;93.89
26807;BME280;14380;49.910;6.792;2023-01-29T03:15:43;100036.00;;;-0.31;97.18
26807;BME280;14380;49.910;6.792;2023-01-29T03:18:14;100042.06;;;-0.31;97.42
26807;BME280;14380;49.910;6.792;2023-01-29T03:20:44;100055.09;;;-0.27;93.44
26807;BME280;14380;49.910;6.792;2023-01-29T03:23:16;100062.53;;;-0.60;94.04
26807;BME280;14380;49.910;6.792;2023-01-29T03:25:50;100058.44;;;-0.38;94.73
26807;BME280;14380;49.910;6.792;2023-01-29T03:28:35;100054.16;;;-0.31;95.87
26807;BME280;14380;49.910;6.792;2023-01-29T03:31:21;100052.47;;;-0.29;95.05
26807;BME280;14380;49.910;6.792;2023-01-29T03:34:11;100056.41;;;-0.67;95.23
26807;BME280;14380;49.910;6.792;2023-01-29T03:36:43;100057.44;;;-0.49;96.66
26807;BME280;14380;49.910;6.792;2023-01-29T03:39:12;100061.00;;;-0.39;96.45
26807;BME280;14380;49.910;6.792;2023-01-29T03:41:45;100064.53;;;-0.31;96.12
26807;BME280;14380;49.910;6.792;2023-01-29T03:44:18;100057.81;;;-0.13;96.53
26807;BME280;14380;49.910;6.792;2023-01-29T03:46:54;100067.25;;;-0.23;95.66
26807;BME280;14380;49.910;6.792;2023-01-29T03:49:29;100055.03;;;-0.32;95.62
26807;BME280;14380;49.910;6.792;2023-01-29T03:52:19;100049.72;;;-0.43;96.00
26807;BME280;14380;49.910;6.792;2023-01-29T03:54:53;100058.03;;;-0.75;97.18
26807;BME280;14380;49.910;6.792;2023-01-29T03:57:28;100050.50;;;-0.50;97.56
26807;BME280;14380;49.910;6.792;2023-01-29T04:00:03;100048.22;;;-0.22;96.17
26807;BME280;14380;49.910;6.792;2023-01-29T04:02:39;100049.06;;;-0.20;95.59
26807;BME280;14380;49.910;6.792;2023-01-29T04:05:10;100048.22;;;-0.19;96.33
26807;BME280;14380;49.910;6.792;2023-01-29T04:07:41;100047.34;;;-0.23;95.56
26807;BME280;14380;49.910;6.792;2023-01-29T04:10:12;100049.94;;;-0.23;98.60
26807;BME280;14380;49.910;6.792;2023-01-29T04:12:43;100051.50;;;-0.37;99.33
26807;BME280;14380;49.910;6.792;2023-01-29T04:15:13;100060.28;;;-0.26;97.48
26807;BME280;14380;49.910;6.792;2023-01-29T04:17:47;100060.28;;;-0.27;95.59
26807;BME280;14380;49.910;6.792;2023-01-29T04:20:15;100055.97;;;-0.24;96.63
26807;BME280;14380;49.910;6.792;2023-01-29T04:22:44;100066.34;;;-0.24;95.43
26807;BME280;14380;49.910;6.792;2023-01-29T04:25:13;100067.00;;;-0.47;95.13
26807;BME280;14380;49.910;6.792;2023-01-29T04:27:44;100074.97;;;-0.29;96.13
26807;BME280;14380;49.910;6.792;2023-01-29T04:30:22;100075.03;;;-0.20;96.40
26807;BME280;14380;49.910;6.792;2023-01-29T04:33:02;100073.94;;;-0.42;95.20
26807;BME280;14380;49.910;6.792;2023-01-29T04:35:41;100067.97;;;-0.37;94.88
26807;BME280;14380;49.910;6.792;2023-01-29T04:38:20;100075.88;;;-0.21;95.49
26807;BME280;14380;49.910;6.792;2023-01-29T04:40:50;100076.69;;;-0.28;95.26
26807;BME280;14380;49.910;6.792;2023-01-29T04:43:28;100077.56;;;-0.28;95.35
26807;BME280;14380;49.910;6.792;2023-01-29T04:46:08;100070.66;;;-0.26;96.89
26807;BME280;14380;49.910;6.792;2023-01-29T04:48:43;100068.81;;;-0.36;95.25
26807;BME280;14380;49.910;6.792;2023-01-29T04:51:18;100077.69;;;-0.16;93.45
26807;BME280;14380;49.910;6.792;2023-01-29T04:53:50;100075.88;;;-0.21;93.00
26807;BME280;14380;49.910;6.792;2023-01-29T04:56:29;100074.13;;;-0.25;93.07
26807;BME280;14380;49.910;6.792;2023-01-29T04:59:03;100074.97;;;-0.28;95.16
26807;BME280;14380;49.910;6.792;2023-01-29T05:01:32;100058.38;;;-0.46;95.46
26807;BME280;14380;49.910;6.792;2023-01-29T05:04:06;100059.31;;;-0.36;96.25
26807;BME280;14380;49.910;6.792;2023-01-29T05:06:34;100047.28;;;-0.29;95.75
26807;BME280;14380;49.910;6.792;2023-01-29T05:09:03;100033.47;;;-0.25;97.02
26807;BME280;14380;49.910;6.792;2023-01-29T05:11:30;100023.81;;;-0.38;95.41
26807;BME280;14380;49.910;6.792;2023-01-29T05:13:58;100021.28;;;-0.34;96.15
26807;BME280;14380;49.910;6.792;2023-01-29T05:16:26;100018.63;;;-0.40;96.57
26807;BME280;14380;49.910;6.792;2023-01-29T05:18:53;100023.16;;;-0.19;95.36
26807;BME280;14380;49.910;6.792;2023-01-29T05:21:22;100019.56;;;-0.32;96.78
26807;BME280;14380;49.910;6.792;2023-01-29T05:24:05;100019.47;;;-0.41;96.05
26807;BME280;14380;49.910;6.792;2023-01-29T05:26:32;100014.38;;;-0.30;97.64
26807;BME280;14380;49.910;6.792;2023-01-29T05:29:16;100013.28;;;-0.55;96.89
26807;BME280;14380;49.910;6.792;2023-01-29T05:31:43;100020.00;;;-0.75;97.07
26807;BME280;14380;49.910;6.792;2023-01-29T05:34:10;100021.81;;;-0.66;95.92
26807;BME280;14380;49.910;6.792;2023-01-29T05:36:37;100028.88;;;-0.52;96.19
26807;BME280;14380;49.910;6.792;2023-01-29T05:39:04;100030.69;;;-0.47;96.74
26807;BME280;14380;49.910;6.792;2023-01-29T05:41:30;100037.38;;;-0.67;95.83
26807;BME280;14380;49.910;6.792;2023-01-29T05:43:57;100050.25;;;-0.75;95.65
26807;BME280;14380;49.910;6.792;2023-01-29T05:46:23;100062.31;;;-0.77;98.40
26807;BME280;14380;49.910;6.792;2023-01-29T05:48:51;100053.94;;;-0.54;97.92
26807;BME280;14380;49.910;6.792;2023-01-29T05:51:18;100056.41;;;-0.65;96.76
26807;BME280;14380;49.910;6.792;2023-01-29T05:53:45;100039.09;;;-0.65;97.22
26807;BME280;14380;49.910;6.792;2023-01-29T05:56:12;100040.88;;;-0.61;97.56
26807;BME280;14380;49.910;6.792;2023-01-29T05:58:38;100046.88;;;-0.66;96.44
26807;BME280;14380;49.910;6.792;2023-01-29T06:01:10;100046.59;;;-0.91;97.50
26807;BME280;14380;49.910;6.792;2023-01-29T06:03:37;100043.47;;;-0.61;96.90
26807;BME280;14380;49.910;6.792;2023-01-29T06:06:03;100045.88;;;-0.78;96.49
26807;BME280;14380;49.910;6.792;2023-01-29T06:08:30;100046.81;;;-0.72;97.15
26807;BME280;14380;49.910;6.792;2023-01-29T06:10:58;100051.00;;;-0.85;96.95
26807;BME280;14380;49.910;6.792;2023-01-29T06:13:25;100043.38;;;-0.71;96.27
26807;BME280;14380;49.910;6.792;2023-01-29T06:15:51;100041.66;;;-0.71;97.06
26807;BME280;14380;49.910;6.792;2023-01-29T06:18:17;100041.63;;;-0.72;96.25
26807;BME280;14380;49.910;6.792;2023-01-29T06:20:44;100046.66;;;-0.86;96.77
26807;BME280;14380;49.910;6.792;2023-01-29T06:23:10;100032.00;;;-0.83;96.53
26807;BME280;14380;49.910;6.792;2023-01-29T06:25:37;100041.31;;;-0.99;96.66
26807;BME280;14380;49.910;6.792;2023-01-29T06:28:05;100050.25;;;-0.75;97.05
26807;BME280;14380;49.910;6.792;2023-01-29T06:30:31;100039.75;;;-0.83;97.52
26807;BME280;14380;49.910;6.792;2023-01-29T06:32:58;100032.91;;;-0.79;98.20
26807;BME280;14380;49.910;6.792;2023-01-29T06:35:26;100030.56;;;-0.54;99.67
26807;BME280;14380;49.910;6.792;2023-01-29T06:37:52;100031.22;;;-0.76;97.96
26807;BME280;14380;49.910;6.792;2023-01-29T06:40:19;100026.31;;;-0.51;96.59
26807;BME280;14380;49.910;6.792;2023-01-29T06:42:45;100021.84;;;-0.64;96.61
26807;BME280;14380;49.910;6.792;2023-01-29T06:45:13;100023.56;;;-0.63;99.13
26807;BME280;14380;49.910;6.792;2023-01-29T06:47:40;100014.69;;;-0.84;97.93
26807;BME280;14380;49.910;6.792;2023-01-29T06:50:07;100009.50;;;-0.84;97.72
26807;BME280;14380;49.910;6.792;2023-01-29T06:52:34;100013.97;;;-0.72;99.69
26807;BME280;14380;49.910;6.792;2023-01-29T06:55:00;100021.69;;;-0.77;100.00
26807;BME280;14380;49.910;6.792;2023-01-29T06:57:27;100032.94;;;-0.75;98.60
26807;BME280;14380;49.910;6.792;2023-01-29T06:59:54;100031.31;;;-0.68;98.70
26807;BME280;14380;49.910;6.792;2023-01-29T07:02:21;100041.97;;;-1.15;97.51
26807;BME280;14380;49.910;6.792;2023-01-29T07:04:48;100041.38;;;-0.93;98.40
26807;BME280;14380;49.910;6.792;2023-01-29T07:07:14;100046.41;;;-1.05;97.56
26807;BME280;14380;49.910;6.792;2023-01-29T07:09:42;100044.03;;;-0.88;97.97
26807;BME280;14380;49.910;6.792;2023-01-29T07:12:09;100047.59;;;-0.80;98.79
26807;BME280;14380;49.910;6.792;2023-01-29T07:14:36;100052.72;;;-0.83;97.65
26807;BME280;14380;49.910;6.792;2023-01-29T07:17:02;100050.88;;;-0.95;98.25
26807;BME280;14380;49.910;6.792;2023-01-29T07:19:30;100045.69;;;-0.96;98.97
26807;BME280;14380;49.910;6.792;2023-01-29T07:21:57;100050.75;;;-1.04;98.51
26807;BME280;14380;49.910;6.792;2023-01-29T07:24:26;100040.72;;;-0.76;98.85
26807;BME280;14380;49.910;6.792;2023-01-29T07:26:53;100037.28;;;-0.73;100.00
26807;BME280;14380;49.910;6.792;2023-01-29T07:29:19;100033.84;;;-0.72;100.00
26807;BME280;14380;49.910;6.792;2023-01-29T07:31:45;100039.03;;;-0.74;100.00
26807;BME280;14380;49.910;6.792;2023-01-29T07:34:12;100038.13;;;-0.76;99.92
26807;BME280;14380;49.910;6.792;2023-01-29T07:36:40;100039.84;;;-0.78;98.34
26807;BME280;14380;49.910;6.792;2023-01-29T07:39:06;100043.16;;;-0.90;99.25
26807;BME280;14380;49.910;6.792;2023-01-29T07:41:33;100048.34;;;-0.88;98.38
26807;BME280;14380;49.910;6.792;2023-01-29T07:43:59;100053.50;;;-0.93;98.21
26807;BME280;14380;49.910;6.792;2023-01-29T07:46:26;100056.91;;;-0.97;97.81
26807;BME280;14380;49.910;6.792;2023-01-29T07:48:52;100066.66;;;-0.75;97.57
26807;BME280;14380;49.910;6.792;2023-01-29T07:51:19;100068.28;;;-0.84;98.74
26807;BME280;14380;49.910;6.792;2023-01-29T07:53:47;100076.38;;;-0.56;97.56
26807;BME280;14380;49.910;6.792;2023-01-29T07:56:13;100077.03;;;-0.75;97.28
26807;BME280;14380;49.910;6.792;2023-01-29T07:58:40;100073.56;;;-0.78;98.46
26807;BME280;14380;49.910;6.792;2023-01-29T08:01:06;100070.88;;;-0.83;98.58
26807;BME280;14380;49.910;6.792;2023-01-29T08:03:33;100061.34;;;-0.85;97.24
26807;BME280;14380;49.910;6.792;2023-01-29T08:06:00;100061.59;;;-0.64;97.48
26807;BME280;14380;49.910;6.792;2023-01-29T08:08:26;100069.28;;;-0.71;97.47
26807;BME280;14380;49.910;6.792;2023-01-29T08:10:54;100075.38;;;-0.71;98.47
26807;BME280;14380;49.910;6.792;2023-01-29T08:13:21;100071.69;;;-0.87;97.49
26807;BME280;14380;49.910;6.792;2023-01-29T08:15:47;100062.56;;;-0.57;98.71
26807;BME280;14380;49.910;6.792;2023-01-29T08:18:14;100064.63;;;-0.99;98.99
26807;BME280;14380;49.910;6.792;2023-01-29T08:20:40;100076.91;;;-0.84;97.48
26807;BME280;14380;49.910;6.792;2023-01-29T08:23:11;100086.47;;;-0.81;97.82
26807;BME280;14380;49.910;6.792;2023-01-29T08:25:38;100082.13;;;-0.82;99.56
26807;BME280;14380;49.910;6.792;2023-01-29T08:28:06;100092.25;;;-1.01;99.65
26807;BME280;14380;49.910;6.792;2023-01-29T08:30:33;100085.91;;;-0.57;99.19
26807;BME280;14380;49.910;6.792;2023-01-29T08:33:02;100080.78;;;-0.49;97.69
26807;BME280;14380;49.910;6.792;2023-01-29T08:35:29;100082.19;;;-0.78;97.69
26807;BME280;14380;49.910;6.792;2023-01-29T08:37:57;100075.59;;;-0.49;96.91
26807;BME280;14380;49.910;6.792;2023-01-29T08:40:24;100079.94;;;-0.50;96.81
26807;BME280;14380;49.910;6.792;2023-01-29T08:42:51;100080.03;;;-0.39;96.68
26807;BME280;14380;49.910;6.792;2023-01-29T08:45:19;100088.78;;;-0.31;96.04
26807;BME280;14380;49.910;6.792;2023-01-29T08:47:46;100087.97;;;-0.25;97.03
26807;BME280;14380;49.910;6.792;2023-01-29T08:50:13;100095.50;;;-0.50;95.56
26807;BME280;14380;49.910;6.792;2023-01-29T08:52:39;100083.22;;;-0.62;97.42
26807;BME280;14380;49.910;6.792;2023-01-29T08:55:06;100080.16;;;-0.29;97.81
26807;BME280;14380;49.910;6.792;2023-01-29T08:57:33;100081.06;;;-0.24;95.80
26807;BME280;14380;49.910;6.792;2023-01-29T08:59:59;100090.44;;;-0.39;96.60
26807;BME280;14380;49.910;6.792;2023-01-29T09:02:27;100093.78;;;-0.48;97.35
26807;BME280;14380;49.910;6.792;2023-01-29T09:04:54;100090.19;;;-0.59;97.03
26807;BME280;14380;49.910;6.792;2023-01-29T09:07:20;100098.09;;;-0.48;96.46
26807;BME280;14380;49.910;6.792;2023-01-29T09:09:47;100104.13;;;-0.49;96.32
26807;BME280;14380;49.910;6.792;2023-01-29T09:12:13;100098.06;;;-0.53;95.60
26807;BME280;14380;49.910;6.792;2023-01-29T09:14:40;100097.34;;;-0.36;96.56
26807;BME280;14380;49.910;6.792;2023-01-29T09:17:06;100084.28;;;-0.49;95.75
26807;BME280;14380;49.910;6.792;2023-01-29T09:19:34;100074.91;;;-0.34;96.98
26807;BME280;14380;49.910;6.792;2023-01-29T09:22:00;100078.94;;;-0.60;95.15
26807;BME280;14380;49.910;6.792;2023-01-29T09:24:27;100085.06;;;-0.54;95.70
26807;BME280;14380;49.910;6.792;2023-01-29T09:26:54;100092.09;;;-0.44;94.66
26807;BME280;14380;49.910;6.792;2023-01-29T09:29:20;100094.34;;;-0.75;95.49
26807;BME280;14380;49.910;6.792;2023-01-29T09:31:47;100099.06;;;-0.38;95.53
26807;BME280;14380;49.910;6.792;2023-01-29T09:34:14;100102.00;;;-0.84;94.33
26807;BME280;14380;49.910;6.792;2023-01-29T09:36:42;100106.56;;;-0.63;96.29
26807;BME280;14380;49.910;6.792;2023-01-29T09:39:08;100105.06;;;-0.42;96.01
26807;BME280;14380;49.910;6.792;2023-01-29T09:41:44;100100.78;;;-0.42;94.89
26807;BME280;14380;49.910;6.792;2023-01-29T09:44:18;100105.31;;;-0.21;95.20
26807;BME280;14380;49.910;6.792;2023-01-29T09:46:49;100108.66;;;-0.31;95.48
26807;BME280;14380;49.910;6.792;2023-01-29T09:49:21;100107.78;;;-0.35;93.48
26807;BME280;14380;49.910;6.792;2023-01-29T09:51:54;100115.63;;;-0.27;95.10
26807;BME280;14380;49.910;6.792;2023-01-29T09:54:23;100116.78;;;0.02;94.07
26807;BME280;14380;49.910;6.792;2023-01-29T09:56:52;100120.09;;;-0.13;91.92
26807;BME280;14380;49.910;6.792;2023-01-29T09:59:21;100123.72;;;0.04;93.86
26807;BME280;14380;49.910;6.792;2023-01-29T10:01:54;100121.94;;;-0.02;92.38
26807;BME280;14380;49.910;6.792;2023-01-29T10:04:43;100117.63;;;-0.78;93.59
26807;BME280;14380;49.910;6.792;2023-01-29T10:07:25;100121.78;;;-0.17;93.36
26807;BME280;14380;49.910;6.792;2023-01-29T10:10:14;100115.06;;;-0.01;92.26
26807;BME280;14380;49.910;6.792;2023-01-29T10:13:00;100108.13;;;-0.01;92.49
26807;BME280;14380;49.910;6.792;2023-01-29T10:15:39;100107.25;;;0.02;91.51
26807;BME280;14380;49.910;6.792;2023-01-29T10:18:29;100100.38;;;0.06;91.97
26807;BME280;14380;49.910;6.792;2023-01-29T10:21:08;100094.28;;;0.01;90.78
26807;BME280;14380;49.910;6.792;2023-01-29T10:23:46;100084.22;;;0.39;90.66
26807;BME280;14380;49.910;6.792;2023-01-29T10:26:15;100080.81;;;0.43;90.91
26807;BME280;14380;49.910;6.792;2023-01-29T10:28:48;100071.84;;;0.10;90.19
26807;BME280;14380;49.910;6.792;2023-01-29T10:31:17;100064.16;;;0.20;89.49
26807;BME280;14380;49.910;6.792;2023-01-29T10:33:49;100066.03;;;0.39;89.43
26807;BME280;14380;49.910;6.792;2023-01-29T10:36:20;100060.00;;;0.45;90.25
26807;BME280;14380;49.910;6.792;2023-01-29T10:38:49;100047.75;;;0.27;89.25
26807;BME280;14380;49.910;6.792;2023-01-29T10:41:42;100052.03;;;0.17;91.97
26807;BME280;14380;49.910;6.792;2023-01-29T10:44:26;100050.50;;;0.49;89.90
26807;BME280;14380;49.910;6.792;2023-01-29T10:47:09;100038.59;;;0.83;88.16
26807;BME280;14380;49.910;6.792;2023-01-29T10:49:51;100033.47;;;0.99;89.71
26807;BME280;14380;49.910;6.792;2023-01-29T10:52:32;100038.66;;;0.96;88.88
26807;BME280;14380;49.910;6.792;2023-01-29T10:55:14;100030.91;;;1.11;88.22
26807;BME280;14380;49.910;6.792;2023-01-29T10:57:53;100029.13;;;0.98;86.75
26807;BME280;14380;49.910;6.792;2023-01-29T11:00:26;100028.00;;;0.51;88.78
26807;BME280;14380;49.910;6.792;2023-01-29T11:03:11;100017.88;;;0.99;89.09
26807;BME280;14380;49.910;6.792;2023-01-29T11:05:42;100003.25;;;1.41;86.38
26807;BME280;14380;49.910;6.792;2023-01-29T11:08:12;99992.88;;;1.75;86.64
26807;BME280;14380;49.910;6.792;2023-01-29T11:10:46;99989.44;;;1.75;85.04
26807;BME280;14380;49.910;6.792;2023-01-29T11:13:17;99985.09;;;1.82;84.71
26807;BME280;14380;49.910;6.792;2023-01-29T11:15:44;99981.59;;;1.80;83.05
26807;BME280;14380;49.910;6.792;2023-01-29T11:18:12;99973.78;;;1.52;84.39
26807;BME280;14380;49.910;6.792;2023-01-29T11:20:41;99976.25;;;0.99;84.05
26807;BME280;14380;49.910;6.792;2023-01-29T11:23:23;99966.81;;;1.38;84.49
26807;BME280;14380;49.910;6.792;2023-01-29T11:25:53;99968.53;;;1.30;85.38
26807;BME280;14380;49.910;6.792;2023-01-29T11:28:37;99965.91;;;1.21;85.50
26807;BME280;14380;49.910;6.792;2023-01-29T11:31:20;99962.47;;;1.56;84.74
26807;BME280;14380;49.910;6.792;2023-01-29T11:33:52;99959.69;;;0.73;85.19
26807;BME280;14380;49.910;6.792;2023-01-29T11:36:25;99944.28;;;1.32;86.44
26807;BME280;14380;49.910;6.792;2023-01-29T11:39:12;99943.41;;;1.61;85.22
26807;BME280;14380;49.910;6.792;2023-01-29T11:41:46;99939.06;;;1.57;86.36
26807;BME280;14380;49.910;6.792;2023-01-29T11:44:17;99954.69;;;1.51;85.17
26807;BME280;14380;49.910;6.792;2023-01-29T11:46:44;99953.56;;;0.61;86.72
26807;BME280;14380;49.910;6.792;2023-01-29T11:49:27;99957.91;;;0.62;87.98
26807;BME280;14380;49.910;6.792;2023-01-29T11:51:56;99962.41;;;1.11;85.01
26807;BME280;14380;49.910;6.792;2023-01-29T11:54:30;99961.56;;;1.07;87.27
26807;BME280;14380;49.910;6.792;2023-01-29T11:56:59;99966.66;;;0.82;87.93
26807;BME280;14380;49.910;6.792;2023-01-29T11:59:34;99947.59;;;0.79;86.87
26807;BME280;14380;49.910;6.792;2023-01-29T12:02:10;99946.84;;;1.28;87.96
26807;BME280;14380;49.910;6.792;2023-01-29T12:04:40;99945.09;;;1.16;85.59
26807;BME280;14380;49.910;6.792;2023-01-29T12:07:11;99944.22;;;1.17;86.74
26807;BME280;14380;49.910;6.792;2023-01-29T12:09:39;99940.75;;;1.16;87.07
26807;BME280;14380;49.910;6.792;2023-01-29T12:12:26;99933.78;;;1.00;85.71
26807;BME280;14380;49.910;6.792;2023-01-29T12:15:05;99933.72;;;0.80;86.56
26807;BME280;14380;49.910;6.792;2023-01-29T12:17:42;99922.56;;;1.27;85.99
26807;BME280;14380;49.910;6.792;2023-01-29T12:20:13;99919.06;;;1.07;85.14
26807;BME280;14380;49.910;6.792;2023-01-29T12:22:44;99910.41;;;1.18;86.55
26807;BME280;14380;49.910;6.792;2023-01-29T12:25:19;99900.91;;;1.53;86.96
26807;BME280;14380;49.910;6.792;2023-01-29T12:27:53;99904.34;;;1.18;86.94
26807;BME280;14380;49.910;6.792;2023-01-29T12:30:26;99891.34;;;1.37;86.13
26807;BME280;14380;49.910;6.792;2023-01-29T12:32:59;99880.94;;;1.32;86.11
26807;BME280;14380;49.910;6.792;2023-01-29T12:35:29;99876.63;;;1.26;86.44
26807;BME280;14380;49.910;6.792;2023-01-29T12:38:00;99873.16;;;1.38;84.97
26807;BME280;14380;49.910;6.792;2023-01-29T12:40:30;99880.09;;;1.72;84.33
26807;BME280;14380;49.910;6.792;2023-01-29T12:43:03;99873.16;;;1.54;84.70
26807;BME280;14380;49.910;6.792;2023-01-29T12:45:33;99875.75;;;1.35;87.05
26807;BME280;14380;49.910;6.792;2023-01-29T12:48:05;99872.28;;;1.53;85.06
26807;BME280;14380;49.910;6.792;2023-01-29T12:50:35;99866.16;;;1.85;84.98
26807;BME280;14380;49.910;6.792;2023-01-29T12:53:07;99866.13;;;2.07;85.39
26807;BME280;14380;49.910;6.792;2023-01-29T12:55:42;99863.50;;;2.10;82.53
26807;BME280;14380;49.910;6.792;2023-01-29T12:58:13;99862.72;;;1.55;83.56
26807;BME280;14380;49.910;6.792;2023-01-29T13:00:43;99852.25;;;1.83;84.26
26807;BME280;14380;49.910;6.792;2023-01-29T13:03:16;99849.69;;;1.85;84.99
26807;BME280;14380;49.910;6.792;2023-01-29T13:05:47;99850.56;;;1.77;84.37
26807;BME280;14380;49.910;6.792;2023-01-29T13:08:18;99847.97;;;1.51;84.22
26807;BME280;14380;49.910;6.792;2023-01-29T13:10:48;99839.25;;;1.85;84.75
26807;BME280;14380;49.910;6.792;2023-01-29T13:13:23;99839.28;;;1.75;84.83
26807;BME280;14380;49.910;6.792;2023-01-29T13:15:54;99837.53;;;1.74;84.32